Las Vegas, NV

9:35 PM PDT on September 16, 2014 (GMT -0700)
KNVLASVE78 | Change Station
CLOSE
Current Station
Personal Weather Station
Location: Las Vegas, NV
Elevation: 2549 ft
Nearby Weather Stations
Active Advisory: Flash Flood Watch Active Notice: Record Report

Elev 2549 ft 36.01 °N, 115.24 °W | Updated 35 seconds ago

Partly Cloudy
Partly Cloudy
84.0 °F
Feels Like 84 °F
N
0.0
Wind Variable Wind from South
Gusts 0.7 mph

Today
High -- | Low -- °F
--% Chance of Precip.
Yesterday
High -- | Low -- °F
Precip. -- in
6:24 AM 6:46 PM
Last Quarter, 39% visible
Pressure 29.75 in
Visibility 10.0 miles
Clouds Few 11000 ft
Scattered Clouds 20000 ft
Scattered Clouds 25000 ft
Heat Index 84 °F
Dew Point 60 °F
Humidity 45%
Rainfall 0.00 in
Snow Depth 1 in , 4 in , 0 in
UV 0 out of 12
Pollen 6.70 out of 12
Ozone Good
PM2.5 Good
Flu Activity Not available.
METAR KLAS 170356Z 17023G33KT 10SM FEW110 SCT200 SCT250 30/14 A2983 RMK AO2 PK WND 16033/0353 SLP074 OCNL LTGCG DSNT E AND S VCBLDU CB DSNT E AND S T03000139

More Conditions Fewer Conditions

Pressure 29.75 in
Visibility 10.0 miles
Clouds Few 11000 ft
Scattered Clouds 20000 ft
Scattered Clouds 25000 ft
Heat Index 84 °F
Dew Point 60 °F
Humidity 45%
Rainfall 0.00 in
Snow Depth 1 in , 4 in , 0 in
UV 0 out of 12
Pollen 6.70 out of 12
Ozone Good
PM2.5 Good
Flu Activity Not available.
METAR KLAS 170356Z 17023G33KT 10SM FEW110 SCT200 SCT250 30/14 A2983 RMK AO2 PK WND 16033/0353 SLP074 OCNL LTGCG DSNT E AND S VCBLDU CB DSNT E AND S T03000139

More Conditions Fewer Conditions

10-Day Weather Forecast

Almanac

Astronomy

Sep. 16, 2014 Rise Set
Actual Time 6:24 AM PDT 6:46 PM PDT
Civil Twilight 5:58 AM PDT 7:12 PM PDT
Nautical Twilight 5:28 AM PDT 7:42 PM PDT
Astronomical Twilight 4:57 AM PDT 8:12 PM PDT
Moon No Moon Rise 2:05 PM PDT (9/16)
Length of Visible Light 13h 13m
Length of Day
12h 22m
Tomorrow will be 2m 15s shorter.
Last Quarter, 39% of the Moon is Illuminated
Sep 17
Last Quarter
Sep 24
New
Oct 1
First Quarter
Oct 8
Full
Oct 15
Last Quarter

Yesterday's Extremes

State Highs State Lows

Community

WunderPhotos

Upload Photos

1,753,965 photos uploaded!

Nearby

Air Quality

  Air Quality AQ Index Pollutant
Yesterday Moderate
OZONE
Yesterday Good
PM10
Current Good
PM2.5
Current Good
OZONE
Tuesday Moderate
OZONE
Tuesday Good
PM10
Wednesday Moderate
OZONE
Wednesday Good
PM10
Thursday Good
PM10
Thursday Good
OZONE
Friday Good
PM10
Friday Good
OZONE
Saturday Good
PM10
Saturday Good
OZONE
Sunday Good
PM10
Sunday Good
OZONE

Snow Depth

Station Depth Elevation
Bear Creek 1 in 7800 ft
Jacks Peak 4 in 8420 ft
Granite Peak 0 in 7800 ft
Taylor Canyon 0 in 6200 ft
Pole Creek R.S. 0 in 8330 ft

Earthquake Activity

City Distance Mag. Time & Date
Alamo, Nevada 91 miles 2.6 8:36 AM PDT
2014-09-14
Minimum magnitude displayed is 2.5.

Coastal Water Temperatures

Place Temperature
No Stations Reporting

Nearby Weather Stations